Time;durP1;ratioP1;P1;durP2;ratioP2;P2;SDS_P1;SDS_P2;PMS_P1;PMS_P2;Temp;Humidity;BMP_temperature;BMP_pressure;BME280_temperature;BME280_humidity;BME280_pressure;Samples;Min_cycle;Max_cycle;Signal;HPM_P1;HPM_P2
2022/07/21 00:01:08;;;;;;;14.80;9.67;;;20.20;99.90;;;;;;6126744;23;20550;-88
2022/07/21 00:03:34;;;;;;;18.77;9.93;;;20.20;99.90;;;;;;6124926;23;20266;-88
2022/07/21 00:05:59;;;;;;;18.43;10.53;;;20.20;99.90;;;;;;6076571;23;20196;-88
2022/07/21 00:08:25;;;;;;;16.43;10.00;;;20.20;99.90;;;;;;6100124;23;20659;-88
2022/07/21 00:10:52;;;;;;;18.20;11.27;;;20.30;99.90;;;;;;6124957;23;20170;-88
2022/07/21 00:13:18;;;;;;;18.60;11.70;;;20.30;99.90;;;;;;6101146;23;20489;-88
2022/07/21 00:15:44;;;;;;;18.17;11.07;;;20.30;99.90;;;;;;6124427;23;20219;-88
2022/07/21 00:18:10;;;;;;;21.07;10.93;;;20.40;99.90;;;;;;6124821;23;20195;-89
2022/07/21 00:20:36;;;;;;;18.33;10.93;;;20.50;99.90;;;;;;6100231;23;20712;-88
2022/07/21 00:23:02;;;;;;;18.13;10.90;;;20.60;99.90;;;;;;6100436;23;20215;-88
2022/07/21 00:25:27;;;;;;;16.17;11.73;;;20.70;99.90;;;;;;6127294;23;20163;-88
2022/07/21 00:27:54;;;;;;;17.13;11.23;;;20.80;99.90;;;;;;6102246;23;20279;-87
2022/07/21 00:30:20;;;;;;;19.47;11.87;;;20.90;99.90;;;;;;6126375;23;20231;-88
2022/07/21 00:32:45;;;;;;;19.33;12.27;;;20.90;99.90;;;;;;6102027;23;20204;-88
2022/07/21 00:35:12;;;;;;;23.57;13.10;;;20.90;99.90;;;;;;6101757;23;20196;-87
2022/07/21 00:37:39;;;;;;;19.47;11.53;;;21.00;99.90;;;;;;6121673;23;20201;-88
2022/07/21 00:40:06;;;;;;;21.30;12.30;;;21.00;99.90;;;;;;6049769;23;20169;-88
2022/07/21 00:42:33;;;;;;;16.93;11.63;;;20.90;99.90;;;;;;6098233;23;20202;-88
2022/07/21 00:45:00;;;;;;;18.87;13.83;;;20.90;99.90;;;;;;6049198;23;20657;-89
2022/07/21 00:47:28;;;;;;;23.93;13.00;;;20.90;99.90;;;;;;6073079;23;20272;-88
2022/07/21 00:49:55;;;;;;;21.97;13.40;;;20.90;99.90;;;;;;6073123;23;20181;-88
2022/07/21 00:52:21;;;;;;;21.77;12.73;;;20.90;99.90;;;;;;6049481;23;20546;-88
2022/07/21 00:54:47;;;;;;;24.13;12.23;;;20.80;99.90;;;;;;6049097;23;20224;-88
2022/07/21 00:57:14;;;;;;;21.53;13.13;;;20.80;99.90;;;;;;6049046;23;20200;-88
2022/07/21 00:59:41;;;;;;;22.80;12.97;;;20.80;99.90;;;;;;6049440;23;20208;-88
2022/07/21 01:02:07;;;;;;;19.73;12.73;;;20.70;99.90;;;;;;6049294;23;20267;-88
2022/07/21 01:04:32;;;;;;;30.87;12.30;;;20.60;99.90;;;;;;6073915;23;20582;-89
2022/07/21 01:07:01;;;;;;;26.03;12.53;;;20.50;99.90;;;;;;6049099;23;20201;-89
2022/07/21 01:09:27;;;;;;;23.57;13.17;;;20.50;99.90;;;;;;6073039;23;20644;-89
2022/07/21 01:11:53;;;;;;;18.60;13.67;;;20.40;99.90;;;;;;6098560;23;20275;-89
2022/07/21 01:14:19;;;;;;;29.53;15.27;;;20.40;99.90;;;;;;6072729;23;20223;-89
2022/07/21 01:16:45;;;;;;;25.40;13.87;;;20.40;99.90;;;;;;6025496;23;20157;-89
2022/07/21 01:19:11;;;;;;;22.87;14.67;;;20.50;99.90;;;;;;6073865;23;20157;-88
2022/07/21 01:21:41;;;;;;;25.87;14.27;;;20.50;99.90;;;;;;6073135;23;20204;-88
2022/07/21 01:24:07;;;;;;;24.80;15.13;;;20.50;99.90;;;;;;6072991;23;20201;-89
2022/07/21 01:26:44;;;;;;;23.63;13.67;;;20.50;99.90;;;;;;6025450;23;20193;-89
2022/07/21 01:29:11;;;;;;;24.77;14.50;;;20.40;99.90;;;;;;6025795;23;20761;-89
2022/07/21 01:31:38;;;;;;;27.30;16.17;;;20.30;99.90;;;;;;6073696;23;20157;-89
2022/07/21 01:34:04;;;;;;;25.33;14.37;;;20.30;99.90;;;;;;6073402;23;20275;-89
2022/07/21 01:36:29;;;;;;;26.20;16.03;;;20.30;99.90;;;;;;6048401;23;20251;-89
2022/07/21 01:41:40;;;;;;;29.33;16.60;;;20.40;99.90;;;;;;6126511;23;20254;-89
2022/07/21 01:44:08;;;;;;;28.63;15.80;;;20.40;99.90;;;;;;6101909;23;20219;-89
2022/07/21 01:46:37;;;;;;;30.43;16.73;;;20.50;99.90;;;;;;6126908;23;20549;-89
2022/07/21 01:49:04;;;;;;;29.23;16.00;;;20.50;99.90;;;;;;6125938;23;20204;-89
2022/07/21 01:51:29;;;;;;;30.53;15.73;;;20.40;99.90;;;;;;6101520;23;20577;-89
2022/07/21 01:53:55;;;;;;;31.37;16.70;;;20.40;99.90;;;;;;6101764;23;20204;-89
2022/07/21 01:56:23;;;;;;;24.87;14.70;;;20.40;99.90;;;;;;6101520;23;20192;-89
2022/07/21 01:58:51;;;;;;;27.50;15.70;;;20.30;99.90;;;;;;6125830;23;20239;-89
2022/07/21 02:01:18;;;;;;;24.67;14.37;;;20.20;99.90;;;;;;6102307;23;20166;-90
2022/07/21 02:03:45;;;;;;;26.63;14.73;;;20.10;99.90;;;;;;6101723;23;20219;-89
2022/07/21 02:06:11;;;;;;;27.80;15.60;;;20.10;99.90;;;;;;6125860;23;20196;-89
2022/07/21 02:08:37;;;;;;;30.33;16.57;;;20.00;99.90;;;;;;6125600;23;20214;-89
2022/07/21 02:11:04;;;;;;;28.83;16.83;;;20.00;99.90;;;;;;6101299;23;20188;-89
2022/07/21 02:13:29;;;;;;;25.10;15.23;;;20.00;99.90;;;;;;6102238;23;20248;-88
2022/07/21 02:15:55;;;;;;;23.67;14.23;;;20.00;99.90;;;;;;6125553;23;20571;-89
2022/07/21 02:18:21;;;;;;;30.40;15.37;;;19.90;99.90;;;;;;6101167;23;20227;-89
2022/07/21 02:20:50;;;;;;;29.27;15.37;;;19.90;99.90;;;;;;6101724;23;20227;-89
2022/07/21 02:23:17;;;;;;;24.77;15.10;;;19.90;99.90;;;;;;6125878;23;20196;-89
2022/07/21 02:25:43;;;;;;;26.53;14.63;;;19.90;99.90;;;;;;6101728;23;20172;-89
2022/07/21 02:28:08;;;;;;;27.20;16.10;;;20.00;99.90;;;;;;6102160;23;20479;-89
2022/07/21 02:30:34;;;;;;;24.67;15.13;;;20.00;99.90;;;;;;6101069;23;20258;-89
2022/07/21 02:33:00;;;;;;;23.43;14.80;;;20.00;99.90;;;;;;6101627;23;20223;-89
2022/07/21 02:35:26;;;;;;;30.53;15.43;;;20.00;99.90;;;;;;6101304;23;20239;-89
2022/07/21 02:37:52;;;;;;;26.70;15.47;;;20.00;99.90;;;;;;6100924;23;20290;-89
2022/07/21 02:40:18;;;;;;;24.57;14.70;;;20.00;99.90;;;;;;6102108;23;20160;-90
2022/07/21 02:42:43;;;;;;;26.47;15.33;;;20.00;99.90;;;;;;6125346;23;20275;-90
2022/07/21 02:45:10;;;;;;;26.37;14.83;;;20.00;99.90;;;;;;6125667;23;20196;-89
2022/07/21 02:47:57;;;;;;;29.07;16.70;;;20.00;99.90;;;;;;6125384;23;20211;-90
2022/07/21 02:50:29;;;;;;;25.63;15.33;;;20.10;99.90;;;;;;6125514;23;20231;-89
2022/07/21 02:52:56;;;;;;;31.73;16.27;;;20.20;99.90;;;;;;6127131;23;20633;-90
2022/07/21 02:55:22;;;;;;;25.87;16.60;;;20.30;99.90;;;;;;6101961;23;20215;-89
2022/07/21 02:57:48;;;;;;;30.77;16.63;;;20.30;99.90;;;;;;6101256;23;20255;-90
2022/07/21 03:00:15;;;;;;;27.33;16.47;;;20.30;99.90;;;;;;6101254;23;20279;-90
2022/07/21 03:02:40;;;;;;;27.37;15.80;;;20.30;99.90;;;;;;6100852;23;20202;-90
2022/07/21 03:05:07;;;;;;;26.63;14.87;;;20.30;99.90;;;;;;6101236;23;20212;-89
2022/07/21 03:07:32;;;;;;;26.00;15.83;;;20.30;99.90;;;;;;6126057;23;20243;-89
2022/07/21 03:09:58;;;;;;;35.23;17.20;;;20.30;99.90;;;;;;6100635;23;20234;-90
2022/07/21 03:12:24;;;;;;;29.03;16.57;;;20.30;99.90;;;;;;6101001;23;20247;-89
2022/07/21 03:14:50;;;;;;;27.50;15.57;;;20.40;99.90;;;;;;6101143;23;20199;-89
2022/07/21 03:17:15;;;;;;;25.67;15.87;;;20.40;99.90;;;;;;6101412;23;20638;-89
2022/07/21 03:19:41;;;;;;;26.57;14.60;;;20.40;99.90;;;;;;6101135;23;20160;-88
2022/07/21 03:22:07;;;;;;;26.30;15.30;;;20.30;99.90;;;;;;6125986;23;20586;-88
2022/07/21 03:24:32;;;;;;;30.70;13.47;;;20.30;99.90;;;;;;6100798;23;20207;-89
2022/07/21 03:26:58;;;;;;;27.97;14.43;;;20.30;99.90;;;;;;6100730;23;20204;-89
2022/07/21 03:29:24;;;;;;;24.17;14.40;;;20.30;99.90;;;;;;6100774;23;20199;-89
2022/07/21 03:31:50;;;;;;;25.30;14.27;;;20.30;99.90;;;;;;6125175;23;20168;-88
2022/07/21 03:34:16;;;;;;;29.20;14.07;;;20.30;99.90;;;;;;6100754;23;20215;-89
2022/07/21 03:36:41;;;;;;;31.27;14.83;;;20.30;99.90;;;;;;6100829;23;20263;-89
2022/07/21 03:39:07;;;;;;;24.33;14.70;;;20.30;99.90;;;;;;6100413;23;20254;-89
2022/07/21 03:41:33;;;;;;;27.87;13.23;;;20.30;99.90;;;;;;6100935;23;20203;-89
2022/07/21 03:43:58;;;;;;;21.63;13.40;;;20.30;99.90;;;;;;6100813;23;20210;-89
2022/07/21 03:46:24;;;;;;;26.30;14.50;;;20.30;99.90;;;;;;6101410;23;20163;-88
2022/07/21 03:48:50;;;;;;;27.67;14.87;;;20.30;99.90;;;;;;6100324;23;20579;-89
2022/07/21 03:51:16;;;;;;;26.00;15.03;;;20.40;99.90;;;;;;6100492;23;20196;-89
2022/07/21 03:53:41;;;;;;;26.37;15.03;;;20.40;99.90;;;;;;6100697;23;20208;-89
2022/07/21 03:56:07;;;;;;;30.90;16.27;;;20.40;99.90;;;;;;6101111;23;20192;-89
2022/07/21 03:58:33;;;;;;;24.47;14.13;;;20.50;99.90;;;;;;6101675;23;20601;-89
2022/07/21 04:00:59;;;;;;;26.60;13.87;;;20.50;99.90;;;;;;6102788;23;20251;-89
2022/07/21 04:03:24;;;;;;;23.53;13.80;;;20.40;99.90;;;;;;6102116;23;20192;-88
2022/07/21 04:05:50;;;;;;;25.33;14.87;;;20.40;99.90;;;;;;6102512;23;20250;-89
2022/07/21 04:08:16;;;;;;;29.83;15.40;;;20.40;99.90;;;;;;6102918;23;20191;-88
2022/07/21 04:10:43;;;;;;;29.07;15.17;;;20.40;99.90;;;;;;6102874;23;20219;-88
2022/07/21 04:13:11;;;;;;;20.90;13.50;;;20.30;99.90;;;;;;6127946;23;20577;-90
2022/07/21 04:15:37;;;;;;;23.30;14.33;;;20.30;99.90;;;;;;6127370;23;20629;-91
2022/07/21 04:18:07;;;;;;;25.47;13.47;;;20.30;99.90;;;;;;6102989;23;20930;-90
2022/07/21 04:20:33;;;;;;;30.13;14.47;;;20.20;99.90;;;;;;6102681;23;20234;-89
2022/07/21 04:22:59;;;;;;;26.03;13.90;;;20.20;99.90;;;;;;6127318;23;21329;-89
2022/07/21 04:25:25;;;;;;;24.07;13.27;;;20.20;99.90;;;;;;6127258;23;20156;-88
2022/07/21 04:27:51;;;;;;;21.73;13.03;;;20.30;99.90;;;;;;6123149;23;20655;-90
2022/07/21 04:30:20;;;;;;;21.00;12.33;;;20.20;99.90;;;;;;6126845;23;20208;-90
2022/07/21 04:32:46;;;;;;;23.63;14.00;;;20.20;99.90;;;;;;6126978;23;20202;-91
2022/07/21 04:35:13;;;;;;;27.67;14.17;;;20.20;99.90;;;;;;6102609;23;20239;-91
2022/07/21 04:37:40;;;;;;;20.10;12.87;;;20.30;99.90;;;;;;6127018;23;20207;-90
2022/07/21 04:40:07;;;;;;;25.17;12.87;;;20.30;99.90;;;;;;6129098;23;20158;-91
2022/07/21 04:42:34;;;;;;;28.13;14.10;;;20.20;99.90;;;;;;6102218;23;20204;-90
2022/07/21 04:45:00;;;;;;;24.37;14.30;;;20.30;99.90;;;;;;6127112;23;20578;-90
2022/07/21 04:47:26;;;;;;;26.60;14.77;;;20.30;99.90;;;;;;6102281;23;20199;-89
2022/07/21 04:49:51;;;;;;;23.30;12.97;;;20.30;99.90;;;;;;6102468;23;20625;-90
2022/07/21 04:52:17;;;;;;;21.93;12.53;;;20.40;99.90;;;;;;6127162;23;20164;-89
2022/07/21 04:54:43;;;;;;;22.27;13.80;;;20.40;99.90;;;;;;6127007;23;20222;-91
2022/07/21 04:57:09;;;;;;;24.10;13.67;;;20.30;99.90;;;;;;6102299;23;20286;-90
2022/07/21 04:59:35;;;;;;;24.40;13.67;;;20.30;99.90;;;;;;6102277;23;20192;-91
2022/07/21 05:02:02;;;;;;;26.53;13.23;;;20.40;99.90;;;;;;6126488;23;20199;-90
2022/07/21 05:04:28;;;;;;;24.33;13.77;;;20.40;99.90;;;;;;6127322;23;20157;-90
2022/07/21 05:06:54;;;;;;;22.40;13.33;;;20.50;99.90;;;;;;6126521;23;20803;-90
2022/07/21 05:09:20;;;;;;;25.03;12.27;;;20.40;99.90;;;;;;6101989;23;20214;-90
2022/07/21 05:11:45;;;;;;;22.07;13.17;;;20.40;99.90;;;;;;6126564;23;20226;-90
2022/07/21 05:14:11;;;;;;;22.80;12.67;;;20.30;99.90;;;;;;6102371;23;20676;-90
2022/07/21 05:16:37;;;;;;;20.93;10.73;;;20.40;99.90;;;;;;6127097;23;20160;-90
2022/07/21 05:19:03;;;;;;;21.47;11.40;;;20.40;99.90;;;;;;6102139;23;20202;-90
2022/07/21 05:21:29;;;;;;;19.37;10.90;;;20.30;99.90;;;;;;6101809;23;20202;-90
2022/07/21 05:23:55;;;;;;;20.03;12.90;;;20.30;99.90;;;;;;6102359;23;20275;-90
2022/07/21 05:26:21;;;;;;;20.00;11.43;;;20.40;99.90;;;;;;6102088;23;20641;-90
2022/07/21 05:28:47;;;;;;;23.00;11.13;;;20.40;99.90;;;;;;6101681;23;20195;-90
2022/07/21 05:31:12;;;;;;;16.10;10.33;;;20.40;99.90;;;;;;6102607;23;20153;-91
2022/07/21 05:33:38;;;;;;;18.37;10.47;;;20.50;99.90;;;;;;6101901;23;20200;-90
2022/07/21 05:36:04;;;;;;;14.47;10.23;;;20.50;99.90;;;;;;6101866;23;20224;-91
2022/07/21 05:38:31;;;;;;;17.43;10.23;;;20.50;99.90;;;;;;6125772;23;20544;-91
2022/07/21 05:40:59;;;;;;;15.20;9.50;;;20.50;99.90;;;;;;6102264;23;20235;-91
2022/07/21 05:43:25;;;;;;;17.50;10.43;;;20.50;99.90;;;;;;6102823;23;20260;-91
2022/07/21 05:45:51;;;;;;;15.90;9.73;;;20.60;99.90;;;;;;6126046;23;20195;-93
2022/07/21 05:48:17;;;;;;;17.43;10.23;;;20.70;99.90;;;;;;6101863;23;20192;-93
2022/07/21 05:50:43;;;;;;;14.30;9.27;;;20.70;99.90;;;;;;6101594;23;20681;-92
2022/07/21 05:53:09;;;;;;;17.03;10.23;;;20.80;99.90;;;;;;6127398;23;20285;-92
2022/07/21 05:55:35;;;;;;;13.77;8.20;;;20.90;99.90;;;;;;6102457;23;20486;-90
2022/07/21 05:58:00;;;;;;;16.73;8.60;;;21.00;99.90;;;;;;6125696;23;20206;-89
2022/07/21 06:00:26;;;;;;;14.63;8.27;;;21.00;99.90;;;;;;6101660;23;20206;-91
2022/07/21 06:02:52;;;;;;;13.13;8.40;;;21.00;99.90;;;;;;6101481;23;20661;-89
2022/07/21 06:05:18;;;;;;;15.53;8.33;;;21.20;99.90;;;;;;6126143;23;20198;-89
2022/07/21 06:07:43;;;;;;;12.83;8.07;;;21.10;99.90;;;;;;6077554;23;20168;-90
2022/07/21 06:10:10;;;;;;;14.70;8.87;;;21.20;99.90;;;;;;6101862;23;20187;-91
2022/07/21 06:12:35;;;;;;;12.90;7.20;;;21.30;99.90;;;;;;6125610;23;20212;-91
2022/07/21 06:15:01;;;;;;;11.90;7.30;;;21.30;99.90;;;;;;6101301;23;20207;-90
2022/07/21 06:17:31;;;;;;;11.00;6.97;;;21.50;99.90;;;;;;6125919;23;20210;-91
2022/07/21 06:19:58;;;;;;;11.87;6.63;;;21.60;99.90;;;;;;6102371;23;20601;-89
2022/07/21 06:22:24;;;;;;;15.03;7.07;;;21.50;99.90;;;;;;6101438;23;20156;-90
2022/07/21 06:24:50;;;;;;;13.90;7.20;;;21.60;99.90;;;;;;6125585;23;20263;-92
2022/07/21 06:27:16;;;;;;;14.10;7.10;;;21.50;99.90;;;;;;6125441;23;20203;-91
2022/07/21 06:29:41;;;;;;;13.50;7.23;;;21.40;99.90;;;;;;6125550;23;20207;-90
2022/07/21 06:32:07;;;;;;;14.40;6.90;;;21.40;99.90;;;;;;6077513;23;20196;-90
2022/07/21 06:34:33;;;;;;;14.70;6.30;;;21.50;99.90;;;;;;6077541;23;20161;-89
2022/07/21 06:36:59;;;;;;;10.13;6.30;;;21.60;99.90;;;;;;6077261;23;20202;-91
2022/07/21 06:39:25;;;;;;;11.07;6.50;;;21.70;99.90;;;;;;6077034;23;20310;-90
2022/07/21 06:41:50;;;;;;;10.90;7.07;;;21.60;99.90;;;;;;6100998;23;20199;-89
2022/07/21 06:44:16;;;;;;;11.83;7.30;;;21.60;99.90;;;;;;6077736;23;20223;-90
2022/07/21 06:46:42;;;;;;;8.93;7.47;;;21.70;99.90;;;;;;6077041;23;20156;-90
2022/07/21 06:49:08;;;;;;;10.83;7.20;;;21.60;99.90;;;;;;6077797;23;20187;-89
2022/07/21 06:51:33;;;;;;;10.77;6.57;;;21.50;99.90;;;;;;6076885;23;20641;-90
2022/07/21 06:53:59;;;;;;;9.53;6.70;;;21.40;99.90;;;;;;6077024;23;20219;-90
2022/07/21 06:56:25;;;;;;;11.17;6.10;;;21.50;99.90;;;;;;6077344;23;20668;-89
2022/07/21 06:58:50;;;;;;;9.73;6.80;;;21.40;99.90;;;;;;6100798;23;20160;-89
2022/07/21 07:01:18;;;;;;;17.60;7.63;;;21.40;99.90;;;;;;6101276;23;20187;-90
2022/07/21 07:03:44;;;;;;;9.97;6.83;;;21.40;99.90;;;;;;6101112;23;20231;-89
2022/07/21 07:06:11;;;;;;;10.33;7.27;;;21.50;99.90;;;;;;6125336;23;20238;-90
2022/07/21 07:08:38;;;;;;;12.30;6.93;;;21.50;99.90;;;;;;6100230;23;20223;-89
2022/07/21 07:11:04;;;;;;;14.53;7.07;;;21.50;99.90;;;;;;6101043;23;20191;-89
2022/07/21 07:13:29;;;;;;;7.87;6.20;;;21.50;99.90;;;;;;6101892;23;20214;-90
2022/07/21 07:15:55;;;;;;;11.27;6.90;;;21.60;99.90;;;;;;6100723;23;20199;-90
2022/07/21 07:18:23;;;;;;;12.17;6.93;;;21.50;99.90;;;;;;6125200;23;20197;-90
2022/07/21 07:20:50;;;;;;;11.80;7.00;;;21.50;99.90;;;;;;6077638;23;20199;-90
2022/07/21 07:23:16;;;;;;;12.67;7.37;;;21.60;99.90;;;;;;6125560;23;20220;-89
2022/07/21 07:25:42;;;;;;;13.27;7.17;;;21.60;99.90;;;;;;6126498;23;20596;-90
2022/07/21 07:28:08;;;;;;;11.70;7.17;;;21.50;99.90;;;;;;6077612;23;20153;-89
2022/07/21 07:30:34;;;;;;;9.80;6.90;;;21.30;99.90;;;;;;6100567;23;20211;-89
2022/07/21 07:33:00;;;;;;;12.23;7.13;;;21.00;99.90;;;;;;6124273;23;20255;-88
2022/07/21 07:35:26;;;;;;;12.37;7.23;;;20.90;99.90;;;;;;6100337;23;20195;-87
2022/07/21 07:37:52;;;;;;;14.33;7.70;;;20.70;99.90;;;;;;6100373;23;20200;-88
2022/07/21 07:40:20;;;;;;;13.37;6.63;;;20.60;99.90;;;;;;6124940;23;20156;-87
2022/07/21 07:42:46;;;;;;;15.87;7.23;;;20.70;99.90;;;;;;6100477;23;20199;-88
2022/07/21 07:45:13;;;;;;;9.33;6.93;;;20.60;99.90;;;;;;6100327;23;20198;-87
2022/07/21 07:47:39;;;;;;;14.50;7.97;;;20.40;99.90;;;;;;6124351;23;20282;-89
2022/07/21 07:50:08;;;;;;;12.53;6.83;;;20.40;99.90;;;;;;6100548;23;20684;-88
2022/07/21 07:52:35;;;;;;;11.37;7.17;;;20.30;99.90;;;;;;6101639;23;20541;-89
2022/07/21 07:55:04;;;;;;;13.73;7.67;;;20.30;99.90;;;;;;6124641;23;20204;-88
2022/07/21 07:57:30;;;;;;;15.30;7.80;;;20.20;99.90;;;;;;6078301;23;20219;-87
2022/07/21 07:59:56;;;;;;;12.50;6.73;;;20.20;99.90;;;;;;6124788;23;20207;-89
2022/07/21 08:02:22;;;;;;;10.90;6.73;;;20.20;99.90;;;;;;6100813;23;20200;-89
2022/07/21 08:04:47;;;;;;;15.37;8.63;;;20.30;99.90;;;;;;6100252;23;20612;-89
2022/07/21 08:07:13;;;;;;;17.00;7.33;;;20.40;99.90;;;;;;6077657;23;20239;-89
2022/07/21 08:09:40;;;;;;;17.10;8.40;;;20.40;99.90;;;;;;6100400;23;20698;-89
2022/07/21 08:12:06;;;;;;;13.23;7.97;;;20.40;99.90;;;;;;6125189;23;20196;-90
2022/07/21 08:14:32;;;;;;;12.93;8.77;;;20.40;99.90;;;;;;6076687;23;20580;-89
2022/07/21 08:16:58;;;;;;;15.53;9.70;;;20.50;99.90;;;;;;6125269;23;20179;-89
2022/07/21 08:19:28;;;;;;;17.20;9.97;;;20.60;99.90;;;;;;6101448;23;20589;-89
2022/07/21 08:21:53;;;;;;;14.53;9.27;;;20.70;99.90;;;;;;6077986;23;20207;-88
2022/07/21 08:24:19;;;;;;;16.67;10.03;;;20.80;99.90;;;;;;6100641;23;20641;-89
2022/07/21 08:26:46;;;;;;;20.07;11.63;;;20.80;99.90;;;;;;6100625;23;20218;-89
2022/07/21 08:29:12;;;;;;;19.00;11.07;;;20.70;99.90;;;;;;6100155;23;20263;-89
2022/07/21 08:31:38;;;;;;;15.63;9.80;;;20.80;99.90;;;;;;6101569;23;20164;-89
2022/07/21 08:34:03;;;;;;;16.67;11.37;;;20.90;99.90;;;;;;6076195;23;20672;-89
2022/07/21 08:36:29;;;;;;;24.27;12.60;;;20.80;99.90;;;;;;6100499;23;20211;-90
2022/07/21 08:38:55;;;;;;;21.87;11.67;;;20.90;99.90;;;;;;6099960;23;20215;-90
2022/07/21 08:41:21;;;;;;;17.67;11.40;;;20.90;99.90;;;;;;6100511;23;20653;-90
2022/07/21 08:43:52;;;;;;;27.50;12.70;;;21.10;99.90;;;;;;6125054;23;20620;-90
2022/07/21 08:46:22;;;;;;;19.83;11.13;;;21.30;99.90;;;;;;6103576;23;20164;-90
2022/07/21 08:48:52;;;;;;;19.70;11.73;;;21.20;99.90;;;;;;6126049;23;20271;-90
2022/07/21 08:51:22;;;;;;;20.70;11.57;;;21.20;99.90;;;;;;6117146;23;20285;-89
2022/07/21 08:53:53;;;;;;;16.07;10.10;;;21.10;99.90;;;;;;6102719;23;20206;-89
2022/07/21 08:56:27;;;;;;;14.60;8.80;;;21.00;99.90;;;;;;6126757;23;20196;-90
2022/07/21 08:58:53;;;;;;;13.97;9.00;;;21.00;99.90;;;;;;6126563;23;20176;-91
2022/07/21 09:01:19;;;;;;;21.87;11.90;;;20.80;99.90;;;;;;6102696;23;20187;-90
2022/07/21 09:03:48;;;;;;;15.57;9.53;;;20.60;99.90;;;;;;6126331;23;20204;-89
2022/07/21 09:06:15;;;;;;;18.40;10.70;;;20.60;99.90;;;;;;6126350;23;20196;-90
2022/07/21 09:08:54;;;;;;;17.63;10.27;;;20.70;99.90;;;;;;6102135;23;20362;-91
2022/07/21 09:11:23;;;;;;;13.57;9.23;;;20.80;99.90;;;;;;6102666;23;20192;-90
2022/07/21 09:14:13;;;;;;;14.47;9.03;;;20.70;99.90;;;;;;6126566;23;20574;-90
2022/07/21 09:16:43;;;;;;;16.57;9.53;;;20.70;99.90;;;;;;6127045;23;20143;-90
2022/07/21 09:19:27;;;;;;;19.50;11.33;;;20.80;99.90;;;;;;6126779;23;20256;-90
2022/07/21 09:21:58;;;;;;;18.90;11.40;;;20.80;99.90;;;;;;6126473;23;20200;-90
2022/07/21 09:24:38;;;;;;;20.97;11.13;;;20.70;99.90;;;;;;6126559;23;20517;-90
2022/07/21 09:27:09;;;;;;;19.20;10.83;;;20.80;99.90;;;;;;6127763;23;20217;-91
2022/07/21 09:29:39;;;;;;;19.67;11.27;;;20.90;99.90;;;;;;6126533;23;20684;-91
2022/07/21 09:32:36;;;;;;;20.83;12.20;;;20.90;99.90;;;;;;6125943;23;20195;-89
2022/07/21 09:35:09;;;;;;;14.33;9.90;;;21.00;99.90;;;;;;6114568;23;20251;-90
2022/07/21 09:37:36;;;;;;;9.60;6.60;;;20.90;99.90;;;;;;6124222;23;20163;-90
2022/07/21 09:40:20;;;;;;;7.77;4.80;;;20.70;99.90;;;;;;6049381;23;20204;-91
2022/07/21 09:42:50;;;;;;;10.97;6.90;;;20.50;99.90;;;;;;6049189;23;20242;-90
2022/07/21 09:45:18;;;;;;;15.53;8.23;;;20.50;99.90;;;;;;6025678;23;20192;-91
2022/07/21 09:47:45;;;;;;;11.23;7.53;;;20.70;99.90;;;;;;6073018;23;20196;-91
2022/07/21 09:50:14;;;;;;;7.80;4.53;;;20.70;99.90;;;;;;6072928;23;20213;-90
2022/07/21 09:52:44;;;;;;;7.07;4.07;;;20.60;99.90;;;;;;6049269;23;20245;-90
2022/07/21 09:55:13;;;;;;;8.10;5.63;;;20.50;99.90;;;;;;6073770;23;20145;-91
2022/07/21 09:57:40;;;;;;;7.77;5.10;;;20.30;99.90;;;;;;6072195;23;20555;-91
2022/07/21 10:00:09;;;;;;;7.53;5.23;;;20.20;99.90;;;;;;6072412;23;20231;-90
2022/07/21 10:02:34;;;;;;;10.03;5.63;;;20.30;99.90;;;;;;6072655;23;20276;-90
2022/07/21 10:05:04;;;;;;;8.00;6.40;;;20.30;99.90;;;;;;6072442;23;20224;-91
2022/07/21 10:07:32;;;;;;;9.63;6.07;;;20.30;99.90;;;;;;6073462;23;20161;-91
2022/07/21 10:09:59;;;;;;;8.43;5.63;;;20.20;99.90;;;;;;6048801;23;20204;-90
2022/07/21 10:12:27;;;;;;;5.20;3.87;;;20.30;99.90;;;;;;6097875;23;20200;-92
2022/07/21 10:14:54;;;;;;;2.97;2.67;;;20.20;99.90;;;;;;6048439;23;20246;-92
2022/07/21 10:17:21;;;;;;;3.53;3.23;;;20.10;99.90;;;;;;6048936;23;20207;-91
2022/07/21 10:20:07;;;;;;;3.97;2.60;;;20.00;99.90;;;;;;6049108;23;20520;-90
2022/07/21 10:23:11;;;;;;;3.37;3.07;;;19.90;99.90;;;;;;6073320;23;20148;-92
2022/07/21 10:25:39;;;;;;;6.40;4.10;;;19.80;99.90;;;;;;6072808;23;20192;-91
2022/07/21 10:28:10;;;;;;;7.77;3.63;;;19.80;99.90;;;;;;6073307;23;20157;-92
2022/07/21 10:30:41;;;;;;;5.67;3.80;;;19.80;99.90;;;;;;6072520;23;20213;-91
2022/07/21 10:33:07;;;;;;;4.33;3.50;;;19.90;99.90;;;;;;6072493;23;20529;-91
2022/07/21 10:35:33;;;;;;;5.13;3.87;;;19.90;99.90;;;;;;6072694;23;20203;-91
2022/07/21 10:38:01;;;;;;;4.07;3.67;;;19.80;99.90;;;;;;6081552;23;20215;-92
2022/07/21 10:40:30;;;;;;;5.60;4.73;;;19.70;99.90;;;;;;6126581;23;20231;-92
2022/07/21 10:43:01;;;;;;;6.80;4.90;;;19.90;99.90;;;;;;6125475;23;20219;-91
2022/07/21 10:45:38;;;;;;;10.13;5.63;;;20.10;99.90;;;;;;6125616;23;20195;-92
2022/07/21 10:48:07;;;;;;;5.83;4.90;;;20.20;99.90;;;;;;6101454;23;20192;-92
2022/07/21 10:50:41;;;;;;;7.00;5.00;;;20.10;99.90;;;;;;6125635;23;20199;-91
2022/07/21 10:53:18;;;;;;;5.23;4.20;;;20.10;99.90;;;;;;6125634;23;20195;-92
2022/07/21 10:55:52;;;;;;;4.47;3.50;;;20.00;99.90;;;;;;6125653;23;20593;-92
2022/07/21 10:58:28;;;;;;;4.47;3.40;;;20.00;99.90;;;;;;6126128;23;20246;-88
2022/07/21 11:01:00;;;;;;;4.23;3.80;;;19.90;99.90;;;;;;6125199;23;20512;-88
2022/07/21 11:03:30;;;;;;;4.40;3.40;;;20.00;99.90;;;;;;6125081;23;20535;-87
2022/07/21 11:06:23;;;;;;;5.77;4.20;;;19.90;99.90;;;;;;6125165;23;20209;-88
2022/07/21 11:09:14;;;;;;;5.93;3.30;;;20.00;99.90;;;;;;6125515;23;20200;-88
2022/07/21 11:12:03;;;;;;;6.03;3.83;;;20.00;99.90;;;;;;6108057;23;20345;-88
2022/07/21 11:14:38;;;;;;;4.57;3.93;;;19.90;99.90;;;;;;6125383;23;20210;-87
2022/07/21 11:17:04;;;;;;;7.30;4.30;;;19.80;99.90;;;;;;6124921;23;20187;-87
2022/07/21 11:19:40;;;;;;;4.73;4.30;;;19.80;99.90;;;;;;6077738;23;20687;-88
2022/07/21 11:22:15;;;;;;;7.50;5.10;;;19.80;99.90;;;;;;6125220;23;20194;-88
2022/07/21 11:24:45;;;;;;;7.07;4.50;;;19.80;99.90;;;;;;6124955;23;20207;-88
2022/07/21 11:27:15;;;;;;;5.17;4.70;;;19.90;99.90;;;;;;6124870;23;20196;-88
2022/07/21 11:29:46;;;;;;;10.37;5.70;;;20.00;99.90;;;;;;6125272;23;20204;-89
2022/07/21 11:32:13;;;;;;;6.80;5.13;;;20.10;99.90;;;;;;6125451;23;20195;-89
2022/07/21 11:34:50;;;;;;;10.03;4.97;;;20.10;99.90;;;;;;6125200;23;20207;-88
2022/07/21 11:37:26;;;;;;;6.77;4.93;;;20.00;99.90;;;;;;6125427;23;20148;-88
2022/07/21 11:39:51;;;;;;;5.17;4.50;;;20.00;99.90;;;;;;6124976;23;20211;-89
2022/07/21 11:42:17;;;;;;;6.37;4.93;;;20.20;99.90;;;;;;6124704;23;20280;-89
2022/07/21 11:44:44;;;;;;;7.87;4.83;;;20.30;99.90;;;;;;6100949;23;20196;-89
2022/07/21 11:47:13;;;;;;;6.13;4.53;;;20.20;99.90;;;;;;6125161;23;20656;-88
2022/07/21 11:49:40;;;;;;;6.77;4.20;;;20.20;99.90;;;;;;6125714;23;20188;-89
2022/07/21 11:52:30;;;;;;;4.97;4.23;;;20.30;99.90;;;;;;6101290;23;20200;-89
2022/07/21 11:54:57;;;;;;;6.63;4.53;;;20.40;99.90;;;;;;6107482;23;20200;-89
2022/07/21 11:57:25;;;;;;;5.30;4.80;;;20.40;99.90;;;;;;6100741;23;20279;-89
2022/07/21 11:59:52;;;;;;;4.90;3.93;;;20.50;99.90;;;;;;6100743;23;20192;-88
2022/07/21 12:02:26;;;;;;;6.27;4.50;;;20.40;99.90;;;;;;6076605;23;20652;-88
2022/07/21 12:04:57;;;;;;;5.37;4.00;;;20.50;99.90;;;;;;6102359;23;20483;-88
2022/07/21 12:07:29;;;;;;;7.87;4.40;;;20.50;99.90;;;;;;6125672;23;20136;-88
2022/07/21 12:10:00;;;;;;;7.20;5.00;;;20.60;99.90;;;;;;6126245;23;20207;-90
2022/07/21 12:12:34;;;;;;;5.73;3.83;;;20.80;99.90;;;;;;6100594;23;20199;-90
2022/07/21 12:15:28;;;;;;;6.97;4.50;;;21.00;99.90;;;;;;6125084;23;20195;-90
2022/07/21 12:17:57;;;;;;;3.77;3.23;;;20.90;99.90;;;;;;6125301;23;20343;-91
2022/07/21 12:20:41;;;;;;;5.63;4.03;;;20.80;99.90;;;;;;6126033;23;20192;-90
2022/07/21 12:23:24;;;;;;;4.20;3.80;;;20.80;99.90;;;;;;6126970;23;20195;-88
2022/07/21 12:25:51;;;;;;;5.33;3.47;;;21.00;99.90;;;;;;6126738;23;20145;-88
2022/07/21 12:28:17;;;;;;;4.20;3.60;;;21.00;99.90;;;;;;6103012;23;20172;-89
2022/07/21 12:30:49;;;;;;;4.33;3.93;;;21.20;99.90;;;;;;6126410;23;20271;-88
2022/07/21 12:33:21;;;;;;;4.07;3.53;;;21.60;99.90;;;;;;6126808;23;20219;-89
2022/07/21 12:36:04;;;;;;;4.63;4.20;;;21.80;99.90;;;;;;6126714;23;20199;-89
2022/07/21 12:38:47;;;;;;;6.13;3.97;;;22.00;99.90;;;;;;6103025;23;20227;-88
2022/07/21 12:41:18;;;;;;;4.73;4.07;;;22.10;99.90;;;;;;6126863;23;20532;-89